createdAt,value
2023-05-02T00:10:24.892Z,12.73
2023-05-02T00:25:26.472Z,13.00
2023-05-02T00:40:28.040Z,10.68
2023-05-02T00:55:29.646Z,11.93
2023-05-02T01:10:31.240Z,10.15
2023-05-02T01:25:32.873Z,12.07
2023-05-02T01:40:34.517Z,11.05
2023-05-02T01:55:36.140Z,10.82
2023-05-02T02:10:37.840Z,12.80
2023-05-02T02:25:40.580Z,11.27
2023-05-02T02:40:42.512Z,12.10
2023-05-02T02:55:44.686Z,10.88
2023-05-02T03:10:46.284Z,11.40
2023-05-02T03:25:48.033Z,12.10
2023-05-02T03:40:55.628Z,14.40
2023-05-02T03:55:57.698Z,10.73
2023-05-02T04:11:08.216Z,15.47
2023-05-02T04:26:10.796Z,18.00
2023-05-02T04:41:19.877Z,18.17
2023-05-02T04:56:27.564Z,17.83
2023-05-02T05:11:29.354Z,18.52
2023-05-02T05:26:32.559Z,14.65
2023-05-02T05:41:35.380Z,11.70
2023-05-02T05:56:41.209Z,13.00
2023-05-02T06:11:47.482Z,12.10
2023-05-02T06:26:49.230Z,13.68
2023-05-02T06:41:50.918Z,11.30
2023-05-02T06:56:53.526Z,11.32
2023-05-02T07:11:55.128Z,11.02
2023-05-02T07:26:56.772Z,11.52
2023-05-02T07:41:58.452Z,10.52
2023-05-02T07:57:03.279Z,10.55
2023-05-02T08:12:05.534Z,10.63
2023-05-02T08:27:07.181Z,13.95
2023-05-02T08:42:08.768Z,13.32
2023-05-02T08:57:10.499Z,12.75
2023-05-02T09:12:12.120Z,13.98
2023-05-02T09:27:13.720Z,10.32
2023-05-02T09:42:15.325Z,11.15
2023-05-02T09:57:16.934Z,11.10
2023-05-02T10:12:18.523Z,11.88
2023-05-02T10:27:20.191Z,11.98
2023-05-02T10:42:21.826Z,11.73
2023-05-02T10:57:23.415Z,11.32
2023-05-02T11:12:25.210Z,9.50
2023-05-02T11:27:26.827Z,8.10
2023-05-02T11:42:29.005Z,8.02
2023-05-02T11:57:30.592Z,7.20
2023-05-02T12:12:32.214Z,14.32
2023-05-02T12:27:34.833Z,11.98
2023-05-02T12:42:36.558Z,14.50
2023-05-02T12:57:38.138Z,16.83
2023-05-02T13:12:39.862Z,16.38
2023-05-02T13:27:41.484Z,8.52
2023-05-02T13:42:43.257Z,5.13
2023-05-02T13:57:45.151Z,6.20
2023-05-02T14:12:46.768Z,5.47
2023-05-02T14:27:48.438Z,7.32
2023-05-02T14:42:50.174Z,9.20
2023-05-02T14:57:52.206Z,8.48
2023-05-02T15:12:54.012Z,8.25
2023-05-02T15:27:55.774Z,8.77
2023-05-02T15:42:57.393Z,5.10
2023-05-02T15:57:59.111Z,5.30
2023-05-02T16:13:01.709Z,4.97
2023-05-02T16:28:03.328Z,10.02
2023-05-02T16:43:05.117Z,10.40
2023-05-02T16:58:09.511Z,8.40
2023-05-02T17:13:11.973Z,8.85
2023-05-02T17:28:13.522Z,6.70
2023-05-02T17:43:15.098Z,8.18
2023-05-02T17:58:16.719Z,6.95
2023-05-02T18:13:18.314Z,5.32
2023-05-02T18:28:19.935Z,5.25
2023-05-02T18:43:22.187Z,5.15
2023-05-02T18:58:23.813Z,6.28
2023-05-02T19:13:27.901Z,7.07
2023-05-02T19:28:29.510Z,6.57
2023-05-02T19:43:31.462Z,5.75
2023-05-02T19:58:33.106Z,4.93
2023-05-02T20:13:34.718Z,4.32
2023-05-02T20:28:36.305Z,5.97
2023-05-02T20:43:39.900Z,5.65
2023-05-02T20:58:41.531Z,4.32
2023-05-02T21:13:43.230Z,5.32
2023-05-02T21:28:44.877Z,6.82
2023-05-02T21:43:46.530Z,5.10
2023-05-02T21:58:49.796Z,3.78
2023-05-02T22:13:51.416Z,5.18
2023-05-02T22:28:53.129Z,3.78
2023-05-02T22:43:54.705Z,6.68
2023-05-02T22:58:56.291Z,5.63
2023-05-02T23:13:57.864Z,4.97
2023-05-02T23:28:59.464Z,10.35
2023-05-02T23:44:01.255Z,9.48
2023-05-02T23:59:02.882Z,7.60
